sensor_id;sensor_type;location;lat;lon;timestamp;P1;durP1;ratioP1;P2;durP2;ratioP2
33844;SDS011;20145;43.118;25.694;2023-07-31T00:01:15;5.30;;;3.55;;
33844;SDS011;20145;43.118;25.694;2023-07-31T00:03:40;3.47;;;3.20;;
33844;SDS011;20145;43.118;25.694;2023-07-31T00:06:06;3.92;;;3.25;;
33844;SDS011;20145;43.118;25.694;2023-07-31T00:08:31;3.45;;;3.20;;
33844;SDS011;20145;43.118;25.694;2023-07-31T00:10:57;3.83;;;3.45;;
33844;SDS011;20145;43.118;25.694;2023-07-31T00:13:22;3.80;;;3.50;;
33844;SDS011;20145;43.118;25.694;2023-07-31T00:15:48;3.50;;;3.20;;
33844;SDS011;20145;43.118;25.694;2023-07-31T00:18:13;4.68;;;4.28;;
33844;SDS011;20145;43.118;25.694;2023-07-31T00:20:39;4.60;;;3.88;;
33844;SDS011;20145;43.118;25.694;2023-07-31T00:23:05;4.25;;;3.95;;
33844;SDS011;20145;43.118;25.694;2023-07-31T00:25:30;4.05;;;3.65;;
33844;SDS011;20145;43.118;25.694;2023-07-31T00:27:56;4.30;;;3.90;;
33844;SDS011;20145;43.118;25.694;2023-07-31T00:30:21;4.00;;;3.67;;
33844;SDS011;20145;43.118;25.694;2023-07-31T00:32:47;3.72;;;3.42;;
33844;SDS011;20145;43.118;25.694;2023-07-31T00:35:13;5.88;;;4.25;;
33844;SDS011;20145;43.118;25.694;2023-07-31T00:37:38;3.90;;;3.60;;
33844;SDS011;20145;43.118;25.694;2023-07-31T00:40:04;4.97;;;4.10;;
33844;SDS011;20145;43.118;25.694;2023-07-31T00:42:30;4.75;;;4.35;;
33844;SDS011;20145;43.118;25.694;2023-07-31T00:44:56;4.40;;;4.10;;
33844;SDS011;20145;43.118;25.694;2023-07-31T00:47:21;4.78;;;4.20;;
33844;SDS011;20145;43.118;25.694;2023-07-31T00:49:47;4.90;;;4.47;;
33844;SDS011;20145;43.118;25.694;2023-07-31T00:52:13;4.82;;;4.15;;
33844;SDS011;20145;43.118;25.694;2023-07-31T00:54:38;5.15;;;4.28;;
33844;SDS011;20145;43.118;25.694;2023-07-31T00:57:04;4.20;;;3.90;;
33844;SDS011;20145;43.118;25.694;2023-07-31T00:59:32;5.45;;;4.00;;
33844;SDS011;20145;43.118;25.694;2023-07-31T01:01:58;5.20;;;4.25;;
33844;SDS011;20145;43.118;25.694;2023-07-31T01:04:23;5.88;;;4.10;;
33844;SDS011;20145;43.118;25.694;2023-07-31T01:07:02;4.88;;;4.00;;
33844;SDS011;20145;43.118;25.694;2023-07-31T01:09:46;7.05;;;4.93;;
33844;SDS011;20145;43.118;25.694;2023-07-31T01:12:22;5.10;;;4.28;;
33844;SDS011;20145;43.118;25.694;2023-07-31T01:15:22;4.63;;;4.03;;
33844;SDS011;20145;43.118;25.694;2023-07-31T01:17:43;4.90;;;4.47;;
33844;SDS011;20145;43.118;25.694;2023-07-31T01:20:17;6.13;;;5.32;;
33844;SDS011;20145;43.118;25.694;2023-07-31T01:28:17;5.72;;;5.10;;
33844;SDS011;20145;43.118;25.694;2023-07-31T01:30:47;6.10;;;5.60;;
33844;SDS011;20145;43.118;25.694;2023-07-31T01:33:14;6.05;;;5.53;;
33844;SDS011;20145;43.118;25.694;2023-07-31T01:35:44;7.07;;;5.70;;
33844;SDS011;20145;43.118;25.694;2023-07-31T01:38:11;5.73;;;5.23;;
33844;SDS011;20145;43.118;25.694;2023-07-31T01:40:37;8.27;;;5.78;;
33844;SDS011;20145;43.118;25.694;2023-07-31T01:43:02;6.22;;;5.63;;
33844;SDS011;20145;43.118;25.694;2023-07-31T01:45:28;6.45;;;5.78;;
33844;SDS011;20145;43.118;25.694;2023-07-31T01:47:53;8.30;;;5.85;;
33844;SDS011;20145;43.118;25.694;2023-07-31T01:50:19;7.20;;;6.60;;
33844;SDS011;20145;43.118;25.694;2023-07-31T01:52:44;7.28;;;6.57;;
33844;SDS011;20145;43.118;25.694;2023-07-31T01:55:10;6.13;;;5.63;;
33844;SDS011;20145;43.118;25.694;2023-07-31T01:57:36;6.28;;;5.72;;
33844;SDS011;20145;43.118;25.694;2023-07-31T02:00:02;6.47;;;5.88;;
33844;SDS011;20145;43.118;25.694;2023-07-31T02:02:28;6.43;;;5.60;;
33844;SDS011;20145;43.118;25.694;2023-07-31T02:04:54;6.15;;;5.63;;
33844;SDS011;20145;43.118;25.694;2023-07-31T02:07:19;5.07;;;4.68;;
33844;SDS011;20145;43.118;25.694;2023-07-31T02:09:45;5.20;;;4.68;;
33844;SDS011;20145;43.118;25.694;2023-07-31T02:12:12;5.00;;;4.60;;
33844;SDS011;20145;43.118;25.694;2023-07-31T02:14:39;4.88;;;4.40;;
33844;SDS011;20145;43.118;25.694;2023-07-31T02:17:05;5.50;;;5.00;;
33844;SDS011;20145;43.118;25.694;2023-07-31T02:19:31;5.57;;;5.18;;
33844;SDS011;20145;43.118;25.694;2023-07-31T02:21:56;7.38;;;5.45;;
33844;SDS011;20145;43.118;25.694;2023-07-31T02:24:22;5.47;;;4.88;;
33844;SDS011;20145;43.118;25.694;2023-07-31T02:26:49;6.43;;;5.88;;
33844;SDS011;20145;43.118;25.694;2023-07-31T02:29:14;7.47;;;5.50;;
33844;SDS011;20145;43.118;25.694;2023-07-31T02:31:40;6.80;;;6.30;;
33844;SDS011;20145;43.118;25.694;2023-07-31T02:34:05;6.55;;;5.93;;
33844;SDS011;20145;43.118;25.694;2023-07-31T02:36:31;5.93;;;5.45;;
33844;SDS011;20145;43.118;25.694;2023-07-31T02:38:56;5.65;;;5.25;;
33844;SDS011;20145;43.118;25.694;2023-07-31T02:41:23;5.78;;;5.28;;
33844;SDS011;20145;43.118;25.694;2023-07-31T02:43:48;6.43;;;5.88;;
33844;SDS011;20145;43.118;25.694;2023-07-31T02:46:14;6.00;;;5.50;;
33844;SDS011;20145;43.118;25.694;2023-07-31T02:48:39;5.97;;;5.45;;
33844;SDS011;20145;43.118;25.694;2023-07-31T02:51:05;6.18;;;5.68;;
33844;SDS011;20145;43.118;25.694;2023-07-31T02:53:30;5.75;;;5.35;;
33844;SDS011;20145;43.118;25.694;2023-07-31T02:55:56;7.10;;;6.18;;
33844;SDS011;20145;43.118;25.694;2023-07-31T02:58:21;11.90;;;7.20;;
33844;SDS011;20145;43.118;25.694;2023-07-31T03:00:47;7.57;;;6.88;;
33844;SDS011;20145;43.118;25.694;2023-07-31T03:03:12;7.40;;;6.80;;
33844;SDS011;20145;43.118;25.694;2023-07-31T03:05:38;7.88;;;7.20;;
33844;SDS011;20145;43.118;25.694;2023-07-31T03:08:03;8.23;;;7.10;;
33844;SDS011;20145;43.118;25.694;2023-07-31T03:10:29;7.90;;;7.22;;
33844;SDS011;20145;43.118;25.694;2023-07-31T03:12:55;8.15;;;7.35;;
33844;SDS011;20145;43.118;25.694;2023-07-31T03:15:20;8.80;;;8.00;;
33844;SDS011;20145;43.118;25.694;2023-07-31T03:17:46;8.82;;;8.13;;
33844;SDS011;20145;43.118;25.694;2023-07-31T03:20:11;8.85;;;8.15;;
33844;SDS011;20145;43.118;25.694;2023-07-31T03:22:37;9.35;;;8.45;;
33844;SDS011;20145;43.118;25.694;2023-07-31T03:25:03;9.05;;;8.25;;
33844;SDS011;20145;43.118;25.694;2023-07-31T03:27:29;9.05;;;8.25;;
33844;SDS011;20145;43.118;25.694;2023-07-31T03:29:55;10.90;;;9.40;;
33844;SDS011;20145;43.118;25.694;2023-07-31T03:32:20;9.75;;;8.93;;
33844;SDS011;20145;43.118;25.694;2023-07-31T03:34:46;10.25;;;9.35;;
33844;SDS011;20145;43.118;25.694;2023-07-31T03:37:12;10.80;;;9.90;;
33844;SDS011;20145;43.118;25.694;2023-07-31T03:39:37;10.70;;;9.90;;
33844;SDS011;20145;43.118;25.694;2023-07-31T03:42:03;10.88;;;9.98;;
33844;SDS011;20145;43.118;25.694;2023-07-31T03:44:29;10.80;;;9.90;;
33844;SDS011;20145;43.118;25.694;2023-07-31T03:46:54;11.18;;;10.18;;
33844;SDS011;20145;43.118;25.694;2023-07-31T03:49:20;12.15;;;10.95;;
33844;SDS011;20145;43.118;25.694;2023-07-31T03:51:46;12.07;;;11.07;;
33844;SDS011;20145;43.118;25.694;2023-07-31T03:54:11;12.85;;;11.60;;
33844;SDS011;20145;43.118;25.694;2023-07-31T03:56:38;12.15;;;11.23;;
33844;SDS011;20145;43.118;25.694;2023-07-31T03:59:04;12.23;;;11.23;;
33844;SDS011;20145;43.118;25.694;2023-07-31T04:01:29;12.85;;;11.52;;
33844;SDS011;20145;43.118;25.694;2023-07-31T04:03:55;11.77;;;10.88;;
33844;SDS011;20145;43.118;25.694;2023-07-31T04:06:21;12.60;;;11.50;;
33844;SDS011;20145;43.118;25.694;2023-07-31T04:08:46;12.30;;;11.20;;
33844;SDS011;20145;43.118;25.694;2023-07-31T04:11:12;13.35;;;11.65;;
33844;SDS011;20145;43.118;25.694;2023-07-31T04:13:38;13.93;;;12.38;;
33844;SDS011;20145;43.118;25.694;2023-07-31T04:16:04;12.52;;;11.55;;
33844;SDS011;20145;43.118;25.694;2023-07-31T04:18:31;14.18;;;12.90;;
33844;SDS011;20145;43.118;25.694;2023-07-31T04:20:57;13.00;;;11.90;;
33844;SDS011;20145;43.118;25.694;2023-07-31T04:23:26;14.10;;;12.65;;
33844;SDS011;20145;43.118;25.694;2023-07-31T04:25:52;13.32;;;12.13;;
33844;SDS011;20145;43.118;25.694;2023-07-31T04:28:17;13.50;;;12.40;;
33844;SDS011;20145;43.118;25.694;2023-07-31T04:30:43;13.52;;;12.35;;
33844;SDS011;20145;43.118;25.694;2023-07-31T04:33:08;13.15;;;11.95;;
33844;SDS011;20145;43.118;25.694;2023-07-31T04:35:34;13.55;;;12.35;;
33844;SDS011;20145;43.118;25.694;2023-07-31T04:38:00;13.88;;;12.65;;
33844;SDS011;20145;43.118;25.694;2023-07-31T04:40:25;13.27;;;11.88;;
33844;SDS011;20145;43.118;25.694;2023-07-31T04:42:51;13.27;;;12.07;;
33844;SDS011;20145;43.118;25.694;2023-07-31T04:45:16;15.18;;;12.10;;
33844;SDS011;20145;43.118;25.694;2023-07-31T04:47:42;14.25;;;12.90;;
33844;SDS011;20145;43.118;25.694;2023-07-31T04:50:08;11.35;;;10.30;;
33844;SDS011;20145;43.118;25.694;2023-07-31T04:52:34;11.05;;;10.15;;
33844;SDS011;20145;43.118;25.694;2023-07-31T04:54:59;11.57;;;10.40;;
33844;SDS011;20145;43.118;25.694;2023-07-31T04:57:25;11.07;;;10.15;;
33844;SDS011;20145;43.118;25.694;2023-07-31T04:59:50;11.10;;;10.10;;
33844;SDS011;20145;43.118;25.694;2023-07-31T05:02:16;11.18;;;10.13;;
33844;SDS011;20145;43.118;25.694;2023-07-31T05:04:42;11.38;;;10.27;;
33844;SDS011;20145;43.118;25.694;2023-07-31T05:07:07;10.88;;;9.88;;
33844;SDS011;20145;43.118;25.694;2023-07-31T05:09:33;9.98;;;9.07;;
33844;SDS011;20145;43.118;25.694;2023-07-31T05:11:58;11.20;;;10.18;;
33844;SDS011;20145;43.118;25.694;2023-07-31T05:14:25;10.75;;;9.65;;
33844;SDS011;20145;43.118;25.694;2023-07-31T05:16:51;10.70;;;9.80;;
33844;SDS011;20145;43.118;25.694;2023-07-31T05:19:17;10.43;;;9.43;;
33844;SDS011;20145;43.118;25.694;2023-07-31T05:21:42;10.82;;;9.80;;
33844;SDS011;20145;43.118;25.694;2023-07-31T05:24:08;11.85;;;10.63;;
33844;SDS011;20145;43.118;25.694;2023-07-31T05:26:34;10.32;;;9.52;;
33844;SDS011;20145;43.118;25.694;2023-07-31T05:28:59;9.73;;;8.82;;
33844;SDS011;20145;43.118;25.694;2023-07-31T05:31:25;10.63;;;9.68;;
33844;SDS011;20145;43.118;25.694;2023-07-31T05:33:51;11.15;;;9.30;;
33844;SDS011;20145;43.118;25.694;2023-07-31T05:36:17;10.95;;;9.88;;
33844;SDS011;20145;43.118;25.694;2023-07-31T05:38:42;12.30;;;9.68;;
33844;SDS011;20145;43.118;25.694;2023-07-31T05:41:11;10.80;;;9.75;;
33844;SDS011;20145;43.118;25.694;2023-07-31T05:43:37;10.75;;;9.45;;
33844;SDS011;20145;43.118;25.694;2023-07-31T05:46:03;11.02;;;9.98;;
33844;SDS011;20145;43.118;25.694;2023-07-31T05:48:28;10.27;;;9.38;;
33844;SDS011;20145;43.118;25.694;2023-07-31T05:50:54;14.50;;;11.55;;
33844;SDS011;20145;43.118;25.694;2023-07-31T05:53:19;11.85;;;10.65;;
33844;SDS011;20145;43.118;25.694;2023-07-31T05:55:45;12.18;;;9.90;;
33844;SDS011;20145;43.118;25.694;2023-07-31T05:58:10;11.05;;;9.65;;
33844;SDS011;20145;43.118;25.694;2023-07-31T06:00:36;10.70;;;9.65;;
33844;SDS011;20145;43.118;25.694;2023-07-31T06:03:02;11.20;;;10.13;;
33844;SDS011;20145;43.118;25.694;2023-07-31T06:05:27;12.43;;;10.20;;
33844;SDS011;20145;43.118;25.694;2023-07-31T06:07:55;12.70;;;10.05;;
33844;SDS011;20145;43.118;25.694;2023-07-31T06:10:21;10.55;;;9.55;;
33844;SDS011;20145;43.118;25.694;2023-07-31T06:12:46;11.68;;;10.48;;
33844;SDS011;20145;43.118;25.694;2023-07-31T06:15:12;13.23;;;10.73;;
33844;SDS011;20145;43.118;25.694;2023-07-31T06:17:38;14.57;;;10.10;;
33844;SDS011;20145;43.118;25.694;2023-07-31T06:20:03;13.25;;;11.65;;
33844;SDS011;20145;43.118;25.694;2023-07-31T06:22:32;11.68;;;10.45;;
33844;SDS011;20145;43.118;25.694;2023-07-31T06:24:58;11.02;;;10.05;;
33844;SDS011;20145;43.118;25.694;2023-07-31T06:27:23;12.70;;;10.45;;
33844;SDS011;20145;43.118;25.694;2023-07-31T06:29:50;12.90;;;11.60;;
33844;SDS011;20145;43.118;25.694;2023-07-31T06:32:18;12.63;;;10.45;;
33844;SDS011;20145;43.118;25.694;2023-07-31T06:34:47;11.65;;;10.55;;
33844;SDS011;20145;43.118;25.694;2023-07-31T06:37:13;11.45;;;10.45;;
33844;SDS011;20145;43.118;25.694;2023-07-31T06:39:44;12.68;;;11.48;;
33844;SDS011;20145;43.118;25.694;2023-07-31T06:42:10;12.63;;;11.43;;
33844;SDS011;20145;43.118;25.694;2023-07-31T06:44:36;13.23;;;12.02;;
33844;SDS011;20145;43.118;25.694;2023-07-31T06:47:01;12.70;;;11.50;;
33844;SDS011;20145;43.118;25.694;2023-07-31T06:49:27;12.27;;;11.18;;
33844;SDS011;20145;43.118;25.694;2023-07-31T06:51:52;14.90;;;10.95;;
33844;SDS011;20145;43.118;25.694;2023-07-31T06:54:18;11.63;;;10.63;;
33844;SDS011;20145;43.118;25.694;2023-07-31T06:56:43;15.88;;;11.35;;
33844;SDS011;20145;43.118;25.694;2023-07-31T06:59:09;13.23;;;11.88;;
33844;SDS011;20145;43.118;25.694;2023-07-31T07:01:38;12.40;;;11.02;;
33844;SDS011;20145;43.118;25.694;2023-07-31T07:04:11;13.23;;;11.95;;
33844;SDS011;20145;43.118;25.694;2023-07-31T07:06:46;14.02;;;12.38;;
33844;SDS011;20145;43.118;25.694;2023-07-31T07:09:12;12.68;;;11.57;;
33844;SDS011;20145;43.118;25.694;2023-07-31T07:11:38;13.23;;;12.13;;
33844;SDS011;20145;43.118;25.694;2023-07-31T07:14:04;13.05;;;11.65;;
33844;SDS011;20145;43.118;25.694;2023-07-31T07:16:29;12.18;;;11.07;;
33844;SDS011;20145;43.118;25.694;2023-07-31T07:18:55;12.52;;;11.43;;
33844;SDS011;20145;43.118;25.694;2023-07-31T07:21:20;15.40;;;10.95;;
33844;SDS011;20145;43.118;25.694;2023-07-31T07:23:46;13.75;;;12.45;;
33844;SDS011;20145;43.118;25.694;2023-07-31T07:26:12;14.52;;;12.50;;
33844;SDS011;20145;43.118;25.694;2023-07-31T07:28:38;15.35;;;12.35;;
33844;SDS011;20145;43.118;25.694;2023-07-31T07:31:03;11.85;;;10.75;;
33844;SDS011;20145;43.118;25.694;2023-07-31T07:33:29;12.18;;;11.13;;
33844;SDS011;20145;43.118;25.694;2023-07-31T07:35:54;14.10;;;12.60;;
33844;SDS011;20145;43.118;25.694;2023-07-31T07:38:20;14.05;;;11.75;;
33844;SDS011;20145;43.118;25.694;2023-07-31T07:40:46;12.02;;;10.93;;
33844;SDS011;20145;43.118;25.694;2023-07-31T07:43:15;12.45;;;11.25;;
33844;SDS011;20145;43.118;25.694;2023-07-31T07:45:41;12.15;;;11.10;;
33844;SDS011;20145;43.118;25.694;2023-07-31T07:48:09;12.20;;;11.05;;
33844;SDS011;20145;43.118;25.694;2023-07-31T07:50:35;11.80;;;10.60;;
33844;SDS011;20145;43.118;25.694;2023-07-31T07:53:03;11.25;;;10.20;;
33844;SDS011;20145;43.118;25.694;2023-07-31T07:55:28;12.18;;;9.80;;
33844;SDS011;20145;43.118;25.694;2023-07-31T07:57:54;15.63;;;10.18;;
33844;SDS011;20145;43.118;25.694;2023-07-31T08:00:19;11.52;;;10.43;;
33844;SDS011;20145;43.118;25.694;2023-07-31T08:02:45;10.20;;;9.30;;
33844;SDS011;20145;43.118;25.694;2023-07-31T08:05:11;10.77;;;9.35;;
33844;SDS011;20145;43.118;25.694;2023-07-31T08:07:36;12.05;;;9.38;;
33844;SDS011;20145;43.118;25.694;2023-07-31T08:10:02;10.43;;;9.43;;
33844;SDS011;20145;43.118;25.694;2023-07-31T08:12:29;11.15;;;9.45;;
33844;SDS011;20145;43.118;25.694;2023-07-31T08:14:55;11.93;;;10.55;;
33844;SDS011;20145;43.118;25.694;2023-07-31T08:17:21;10.88;;;9.80;;
33844;SDS011;20145;43.118;25.694;2023-07-31T08:19:46;10.70;;;9.60;;
33844;SDS011;20145;43.118;25.694;2023-07-31T08:22:12;10.13;;;9.23;;
33844;SDS011;20145;43.118;25.694;2023-07-31T08:24:37;11.30;;;10.10;;
33844;SDS011;20145;43.118;25.694;2023-07-31T08:27:03;9.23;;;8.18;;
33844;SDS011;20145;43.118;25.694;2023-07-31T08:29:30;9.95;;;8.38;;
33844;SDS011;20145;43.118;25.694;2023-07-31T08:31:56;9.90;;;8.90;;
33844;SDS011;20145;43.118;25.694;2023-07-31T08:34:21;14.48;;;9.75;;
33844;SDS011;20145;43.118;25.694;2023-07-31T08:36:47;11.18;;;8.48;;
33844;SDS011;20145;43.118;25.694;2023-07-31T08:39:12;9.23;;;7.95;;
33844;SDS011;20145;43.118;25.694;2023-07-31T08:41:38;9.23;;;8.38;;
33844;SDS011;20145;43.118;25.694;2023-07-31T08:44:04;8.63;;;7.82;;
33844;SDS011;20145;43.118;25.694;2023-07-31T08:46:31;8.57;;;7.68;;
33844;SDS011;20145;43.118;25.694;2023-07-31T08:48:58;7.88;;;7.13;;
33844;SDS011;20145;43.118;25.694;2023-07-31T08:51:24;8.07;;;7.38;;
33844;SDS011;20145;43.118;25.694;2023-07-31T08:53:50;8.02;;;7.22;;
33844;SDS011;20145;43.118;25.694;2023-07-31T08:56:18;9.77;;;7.97;;
33844;SDS011;20145;43.118;25.694;2023-07-31T08:58:44;8.80;;;7.90;;
33844;SDS011;20145;43.118;25.694;2023-07-31T09:01:11;7.53;;;6.82;;
33844;SDS011;20145;43.118;25.694;2023-07-31T09:03:38;9.95;;;7.10;;
33844;SDS011;20145;43.118;25.694;2023-07-31T09:06:05;8.80;;;7.40;;
33844;SDS011;20145;43.118;25.694;2023-07-31T09:08:35;9.27;;;6.88;;
33844;SDS011;20145;43.118;25.694;2023-07-31T09:11:02;7.43;;;6.80;;
33844;SDS011;20145;43.118;25.694;2023-07-31T09:13:29;8.95;;;7.68;;
33844;SDS011;20145;43.118;25.694;2023-07-31T09:15:56;7.55;;;6.88;;
33844;SDS011;20145;43.118;25.694;2023-07-31T09:18:22;7.07;;;6.47;;
33844;SDS011;20145;43.118;25.694;2023-07-31T09:21:06;8.02;;;6.68;;
33844;SDS011;20145;43.118;25.694;2023-07-31T09:23:45;7.10;;;6.40;;
33844;SDS011;20145;43.118;25.694;2023-07-31T09:26:33;6.88;;;6.18;;
33844;SDS011;20145;43.118;25.694;2023-07-31T09:29:01;10.00;;;6.18;;
33844;SDS011;20145;43.118;25.694;2023-07-31T09:31:39;6.95;;;6.25;;
33844;SDS011;20145;43.118;25.694;2023-07-31T09:34:08;7.03;;;6.43;;
33844;SDS011;20145;43.118;25.694;2023-07-31T09:36:41;8.02;;;7.32;;
33844;SDS011;20145;43.118;25.694;2023-07-31T09:39:09;8.98;;;6.63;;
33844;SDS011;20145;43.118;25.694;2023-07-31T09:41:39;6.70;;;5.93;;
33844;SDS011;20145;43.118;25.694;2023-07-31T09:44:05;7.93;;;6.05;;
33844;SDS011;20145;43.118;25.694;2023-07-31T09:46:32;7.93;;;6.25;;
33844;SDS011;20145;43.118;25.694;2023-07-31T09:49:09;5.78;;;5.28;;
33844;SDS011;20145;43.118;25.694;2023-07-31T09:51:40;7.85;;;5.35;;
33844;SDS011;20145;43.118;25.694;2023-07-31T09:54:11;9.73;;;5.20;;
33844;SDS011;20145;43.118;25.694;2023-07-31T09:56:39;5.60;;;5.10;;
33844;SDS011;20145;43.118;25.694;2023-07-31T09:59:08;5.93;;;5.43;;
33844;SDS011;20145;43.118;25.694;2023-07-31T10:01:37;6.13;;;5.60;;
33844;SDS011;20145;43.118;25.694;2023-07-31T10:04:04;6.90;;;5.30;;
33844;SDS011;20145;43.118;25.694;2023-07-31T10:06:33;7.05;;;5.20;;
33844;SDS011;20145;43.118;25.694;2023-07-31T10:09:00;5.60;;;5.10;;
33844;SDS011;20145;43.118;25.694;2023-07-31T10:11:27;5.40;;;5.00;;
33844;SDS011;20145;43.118;25.694;2023-07-31T10:13:55;6.07;;;5.57;;
33844;SDS011;20145;43.118;25.694;2023-07-31T10:16:21;6.32;;;4.97;;
33844;SDS011;20145;43.118;25.694;2023-07-31T10:18:47;7.78;;;5.57;;
33844;SDS011;20145;43.118;25.694;2023-07-31T10:21:14;5.68;;;4.63;;
33844;SDS011;20145;43.118;25.694;2023-07-31T10:23:40;5.30;;;4.90;;
33844;SDS011;20145;43.118;25.694;2023-07-31T10:26:08;5.78;;;4.65;;
33844;SDS011;20145;43.118;25.694;2023-07-31T10:28:34;5.57;;;4.60;;
33844;SDS011;20145;43.118;25.694;2023-07-31T10:31:02;5.50;;;5.00;;
33844;SDS011;20145;43.118;25.694;2023-07-31T10:33:29;6.05;;;5.45;;
33844;SDS011;20145;43.118;25.694;2023-07-31T10:38:54;6.57;;;6.00;;
33844;SDS011;20145;43.118;25.694;2023-07-31T10:41:27;5.90;;;5.28;;
33844;SDS011;20145;43.118;25.694;2023-07-31T10:43:57;6.18;;;5.30;;
33844;SDS011;20145;43.118;25.694;2023-07-31T10:46:24;6.18;;;5.60;;
33844;SDS011;20145;43.118;25.694;2023-07-31T10:48:57;5.82;;;5.32;;
33844;SDS011;20145;43.118;25.694;2023-07-31T10:51:23;5.97;;;5.55;;
33844;SDS011;20145;43.118;25.694;2023-07-31T10:54:15;5.70;;;5.20;;
33844;SDS011;20145;43.118;25.694;2023-07-31T10:56:46;7.30;;;5.18;;
33844;SDS011;20145;43.118;25.694;2023-07-31T10:59:12;9.07;;;5.57;;
33844;SDS011;20145;43.118;25.694;2023-07-31T11:04:24;5.50;;;5.10;;
33844;SDS011;20145;43.118;25.694;2023-07-31T11:07:00;8.90;;;5.90;;
33844;SDS011;20145;43.118;25.694;2023-07-31T11:09:31;6.78;;;5.90;;
33844;SDS011;20145;43.118;25.694;2023-07-31T11:11:58;6.40;;;5.80;;
33844;SDS011;20145;43.118;25.694;2023-07-31T11:14:24;8.80;;;5.32;;
33844;SDS011;20145;43.118;25.694;2023-07-31T11:16:50;9.60;;;5.65;;
33844;SDS011;20145;43.118;25.694;2023-07-31T11:19:25;5.90;;;5.03;;
33844;SDS011;20145;43.118;25.694;2023-07-31T11:21:51;6.30;;;5.70;;
33844;SDS011;20145;43.118;25.694;2023-07-31T11:24:18;6.32;;;5.30;;
33844;SDS011;20145;43.118;25.694;2023-07-31T11:26:53;5.88;;;5.22;;
33844;SDS011;20145;43.118;25.694;2023-07-31T11:29:19;4.95;;;4.55;;
33844;SDS011;20145;43.118;25.694;2023-07-31T11:31:46;5.75;;;5.25;;
33844;SDS011;20145;43.118;25.694;2023-07-31T11:34:13;5.43;;;5.00;;
33844;SDS011;20145;43.118;25.694;2023-07-31T11:36:38;5.72;;;5.22;;
33844;SDS011;20145;43.118;25.694;2023-07-31T11:39:07;5.43;;;4.95;;
33844;SDS011;20145;43.118;25.694;2023-07-31T11:41:33;5.25;;;4.85;;
33844;SDS011;20145;43.118;25.694;2023-07-31T11:43:59;7.13;;;5.50;;
33844;SDS011;20145;43.118;25.694;2023-07-31T11:46:26;6.75;;;4.57;;
33844;SDS011;20145;43.118;25.694;2023-07-31T11:48:52;5.22;;;4.82;;
33844;SDS011;20145;43.118;25.694;2023-07-31T11:51:23;5.38;;;4.88;;
33844;SDS011;20145;43.118;25.694;2023-07-31T11:53:57;5.80;;;5.28;;
33844;SDS011;20145;43.118;25.694;2023-07-31T11:56:24;6.57;;;4.68;;
33844;SDS011;20145;43.118;25.694;2023-07-31T11:58:56;7.10;;;5.25;;
33844;SDS011;20145;43.118;25.694;2023-07-31T12:01:24;5.82;;;5.22;;
33844;SDS011;20145;43.118;25.694;2023-07-31T12:03:52;5.25;;;4.72;;
33844;SDS011;20145;43.118;25.694;2023-07-31T12:06:19;6.00;;;5.15;;
33844;SDS011;20145;43.118;25.694;2023-07-31T12:08:46;5.72;;;5.13;;
33844;SDS011;20145;43.118;25.694;2023-07-31T12:11:11;6.43;;;5.20;;
33844;SDS011;20145;43.118;25.694;2023-07-31T12:13:40;5.65;;;5.15;;
33844;SDS011;20145;43.118;25.694;2023-07-31T12:16:06;7.90;;;5.22;;
33844;SDS011;20145;43.118;25.694;2023-07-31T12:18:35;6.10;;;5.50;;
33844;SDS011;20145;43.118;25.694;2023-07-31T12:21:02;5.20;;;4.63;;
33844;SDS011;20145;43.118;25.694;2023-07-31T12:23:31;5.80;;;5.25;;
33844;SDS011;20145;43.118;25.694;2023-07-31T12:26:07;5.40;;;4.90;;
33844;SDS011;20145;43.118;25.694;2023-07-31T12:28:46;5.40;;;4.95;;
33844;SDS011;20145;43.118;25.694;2023-07-31T12:31:14;5.82;;;5.25;;
33844;SDS011;20145;43.118;25.694;2023-07-31T12:33:42;5.32;;;4.93;;
33844;SDS011;20145;43.118;25.694;2023-07-31T12:36:15;5.95;;;5.00;;
33844;SDS011;20145;43.118;25.694;2023-07-31T12:38:42;5.78;;;4.80;;
33844;SDS011;20145;43.118;25.694;2023-07-31T12:41:09;8.32;;;5.35;;
33844;SDS011;20145;43.118;25.694;2023-07-31T12:43:35;6.82;;;4.88;;
33844;SDS011;20145;43.118;25.694;2023-07-31T12:46:02;7.07;;;5.00;;
33844;SDS011;20145;43.118;25.694;2023-07-31T12:48:28;7.75;;;4.78;;
33844;SDS011;20145;43.118;25.694;2023-07-31T12:50:54;6.03;;;5.40;;
33844;SDS011;20145;43.118;25.694;2023-07-31T12:53:20;6.63;;;5.38;;
33844;SDS011;20145;43.118;25.694;2023-07-31T12:55:45;5.82;;;5.32;;
33844;SDS011;20145;43.118;25.694;2023-07-31T12:58:11;8.55;;;5.07;;
33844;SDS011;20145;43.118;25.694;2023-07-31T13:00:37;4.78;;;4.35;;
33844;SDS011;20145;43.118;25.694;2023-07-31T13:03:03;4.82;;;4.35;;
33844;SDS011;20145;43.118;25.694;2023-07-31T13:05:28;5.45;;;4.82;;
33844;SDS011;20145;43.118;25.694;2023-07-31T13:07:54;5.60;;;4.60;;
33844;SDS011;20145;43.118;25.694;2023-07-31T13:10:21;5.45;;;4.95;;
33844;SDS011;20145;43.118;25.694;2023-07-31T13:12:47;5.57;;;5.07;;
33844;SDS011;20145;43.118;25.694;2023-07-31T13:15:13;6.10;;;5.60;;
33844;SDS011;20145;43.118;25.694;2023-07-31T13:17:39;6.97;;;5.90;;
33844;SDS011;20145;43.118;25.694;2023-07-31T13:20:05;6.40;;;5.80;;
33844;SDS011;20145;43.118;25.694;2023-07-31T13:22:31;6.80;;;6.30;;
33844;SDS011;20145;43.118;25.694;2023-07-31T13:24:56;12.48;;;7.43;;
33844;SDS011;20145;43.118;25.694;2023-07-31T13:27:22;7.40;;;6.75;;
33844;SDS011;20145;43.118;25.694;2023-07-31T13:29:49;7.53;;;6.75;;
33844;SDS011;20145;43.118;25.694;2023-07-31T13:32:19;6.53;;;5.93;;
33844;SDS011;20145;43.118;25.694;2023-07-31T13:34:46;7.55;;;6.38;;
33844;SDS011;20145;43.118;25.694;2023-07-31T13:37:12;6.15;;;5.65;;
33844;SDS011;20145;43.118;25.694;2023-07-31T13:39:38;5.72;;;5.18;;
33844;SDS011;20145;43.118;25.694;2023-07-31T13:42:04;8.35;;;5.63;;
33844;SDS011;20145;43.118;25.694;2023-07-31T13:44:34;6.28;;;5.65;;
33844;SDS011;20145;43.118;25.694;2023-07-31T13:47:00;6.50;;;5.85;;
33844;SDS011;20145;43.118;25.694;2023-07-31T13:49:26;6.25;;;5.60;;
33844;SDS011;20145;43.118;25.694;2023-07-31T13:51:52;6.15;;;5.63;;
33844;SDS011;20145;43.118;25.694;2023-07-31T13:54:18;7.20;;;6.32;;
33844;SDS011;20145;43.118;25.694;2023-07-31T13:56:43;7.45;;;6.75;;
33844;SDS011;20145;43.118;25.694;2023-07-31T13:59:10;7.15;;;6.45;;
33844;SDS011;20145;43.118;25.694;2023-07-31T14:01:37;7.65;;;6.82;;
33844;SDS011;20145;43.118;25.694;2023-07-31T14:04:03;7.95;;;7.00;;
33844;SDS011;20145;43.118;25.694;2023-07-31T14:06:29;7.97;;;7.28;;
33844;SDS011;20145;43.118;25.694;2023-07-31T14:08:57;7.72;;;7.07;;
33844;SDS011;20145;43.118;25.694;2023-07-31T14:11:26;8.02;;;6.82;;
33844;SDS011;20145;43.118;25.694;2023-07-31T14:13:57;7.70;;;7.00;;
33844;SDS011;20145;43.118;25.694;2023-07-31T14:16:23;7.90;;;7.20;;
33844;SDS011;20145;43.118;25.694;2023-07-31T14:18:49;10.27;;;7.65;;
33844;SDS011;20145;43.118;25.694;2023-07-31T14:21:14;7.78;;;6.93;;
33844;SDS011;20145;43.118;25.694;2023-07-31T14:23:41;7.38;;;6.78;;
33844;SDS011;20145;43.118;25.694;2023-07-31T14:26:07;7.35;;;6.65;;
33844;SDS011;20145;43.118;25.694;2023-07-31T14:28:32;7.75;;;7.05;;
33844;SDS011;20145;43.118;25.694;2023-07-31T14:30:58;7.68;;;6.97;;
33844;SDS011;20145;43.118;25.694;2023-07-31T14:33:24;7.47;;;6.78;;
33844;SDS011;20145;43.118;25.694;2023-07-31T14:35:50;8.18;;;7.40;;